createdAt,value
2023-08-14T00:02:14.077Z,11.43
2023-08-14T00:05:16.680Z,8.55
2023-08-14T00:08:18.971Z,8.20
2023-08-14T00:11:20.948Z,8.20
2023-08-14T00:14:22.969Z,10.93
2023-08-14T00:17:25.508Z,7.60
2023-08-14T00:20:28.037Z,9.70
2023-08-14T00:23:30.205Z,9.50
2023-08-14T00:26:32.230Z,8.77
2023-08-14T00:29:34.459Z,7.70
2023-08-14T00:32:36.772Z,10.68
2023-08-14T00:35:39.231Z,8.05
2023-08-14T00:38:41.183Z,8.00
2023-08-14T00:41:43.237Z,7.43
2023-08-14T00:44:45.598Z,8.63
2023-08-14T00:47:47.791Z,8.25
2023-08-14T00:50:50.879Z,8.25
2023-08-14T00:53:52.928Z,8.53
2023-08-14T00:56:55.079Z,8.73
2023-08-14T00:59:58.139Z,8.43
2023-08-14T01:03:01.295Z,8.90
2023-08-14T01:06:03.327Z,8.38
2023-08-14T01:09:05.532Z,9.30
2023-08-14T01:12:26.412Z,8.77
2023-08-14T01:15:30.947Z,10.77
2023-08-14T01:18:35.061Z,8.02
2023-08-14T01:21:38.288Z,8.50
2023-08-14T01:24:47.387Z,10.70
2023-08-14T01:27:50.173Z,11.33
2023-08-14T01:30:53.885Z,8.95
2023-08-14T01:33:56.048Z,12.45
2023-08-14T01:37:13.927Z,9.43
2023-08-14T01:40:31.309Z,10.53
2023-08-14T01:43:35.003Z,9.30
2023-08-14T01:46:43.917Z,9.68
2023-08-14T01:49:46.830Z,9.68
2023-08-14T01:52:49.725Z,9.73
2023-08-14T01:55:52.193Z,9.23
2023-08-14T01:58:54.281Z,9.93
2023-08-14T02:01:57.739Z,11.50
2023-08-14T02:04:59.854Z,10.63
2023-08-14T02:08:01.957Z,11.63
2023-08-14T02:11:10.930Z,10.60
2023-08-14T02:14:13.342Z,9.73
2023-08-14T02:17:15.302Z,11.27
2023-08-14T02:20:18.733Z,11.50
2023-08-14T02:23:20.848Z,10.02
2023-08-14T02:26:23.030Z,11.77
2023-08-14T02:29:25.211Z,10.80
2023-08-14T02:32:27.882Z,12.93
2023-08-14T02:35:30.034Z,12.00
2023-08-14T02:38:32.573Z,10.98
2023-08-14T02:41:34.566Z,11.13
2023-08-14T02:44:37.131Z,10.87
2023-08-14T02:47:39.597Z,12.85
2023-08-14T02:50:41.766Z,11.50
2023-08-14T02:53:43.838Z,11.32
2023-08-14T02:56:45.949Z,10.97
2023-08-14T02:59:48.447Z,10.97
2023-08-14T03:02:50.618Z,10.18
2023-08-14T03:05:52.856Z,13.07
2023-08-14T03:08:54.820Z,10.80
2023-08-14T03:11:56.863Z,10.87
2023-08-14T03:14:59.066Z,10.20
2023-08-14T03:18:01.577Z,9.85
2023-08-14T03:21:03.834Z,10.55
2023-08-14T03:24:07.310Z,11.82
2023-08-14T03:27:10.455Z,10.73
2023-08-14T03:30:13.971Z,9.80
2023-08-14T03:33:16.302Z,10.20
2023-08-14T03:36:18.457Z,14.13
2023-08-14T03:39:21.002Z,11.73
2023-08-14T03:42:23.038Z,10.83
2023-08-14T03:45:25.075Z,11.50
2023-08-14T03:48:29.514Z,10.40
2023-08-14T03:51:31.650Z,11.90
2023-08-14T03:54:34.099Z,16.02
2023-08-14T03:57:36.290Z,11.23
2023-08-14T04:00:38.691Z,13.00
2023-08-14T04:03:41.246Z,10.32
2023-08-14T04:06:45.455Z,10.05
2023-08-14T04:09:48.055Z,9.93
2023-08-14T04:12:52.075Z,11.00
2023-08-14T04:16:01.024Z,9.73
2023-08-14T04:19:03.780Z,10.27
2023-08-14T04:22:05.815Z,10.73
2023-08-14T04:25:08.503Z,9.95
2023-08-14T04:28:10.649Z,11.17
2023-08-14T04:31:13.097Z,9.17
2023-08-14T04:34:15.722Z,11.18
2023-08-14T04:37:20.878Z,9.25
2023-08-14T04:40:23.185Z,9.70
2023-08-14T04:43:25.519Z,10.03
2023-08-14T04:46:38.373Z,10.93
2023-08-14T04:49:47.765Z,10.32
2023-08-14T04:52:49.757Z,11.20
2023-08-14T04:55:53.878Z,10.93
2023-08-14T04:58:56.434Z,9.97
2023-08-14T05:01:58.896Z,9.03
2023-08-14T05:05:01.563Z,10.15
2023-08-14T05:08:04.641Z,10.10
2023-08-14T05:11:07.220Z,11.32
2023-08-14T05:14:09.317Z,10.57
2023-08-14T05:17:11.549Z,11.00
2023-08-14T05:20:14.769Z,10.43
2023-08-14T05:23:16.841Z,9.60
2023-08-14T05:26:19.358Z,9.00
2023-08-14T05:29:21.749Z,9.93
2023-08-14T05:32:23.694Z,9.67
2023-08-14T05:35:26.094Z,9.60
2023-08-14T05:38:28.175Z,8.30
2023-08-14T05:41:30.231Z,8.52
2023-08-14T05:44:32.247Z,9.70
2023-08-14T05:47:34.299Z,10.00
2023-08-14T05:50:36.397Z,12.52
2023-08-14T05:53:38.642Z,11.77
2023-08-14T05:56:40.773Z,9.80
2023-08-14T05:59:42.710Z,8.90
2023-08-14T06:02:45.696Z,9.40
2023-08-14T06:05:48.098Z,6.95
2023-08-14T06:08:50.114Z,7.65
2023-08-14T06:11:52.197Z,6.90
2023-08-14T06:14:54.151Z,7.30
2023-08-14T06:17:56.213Z,6.77
2023-08-14T06:20:58.685Z,8.07
2023-08-14T06:24:01.080Z,7.20
2023-08-14T06:27:03.545Z,6.18
2023-08-14T06:30:06.536Z,6.10
2023-08-14T06:33:08.690Z,5.67
2023-08-14T06:36:10.724Z,9.32
2023-08-14T06:39:12.885Z,5.70
2023-08-14T06:42:15.592Z,8.50
2023-08-14T06:45:17.784Z,4.80
2023-08-14T06:48:20.864Z,6.63
2023-08-14T06:51:23.508Z,5.28
2023-08-14T06:54:26.004Z,4.88
2023-08-14T06:57:28.636Z,7.30
2023-08-14T07:00:31.227Z,5.30
2023-08-14T07:03:33.699Z,4.83
2023-08-14T07:06:35.918Z,4.25
2023-08-14T07:09:38.022Z,5.57
2023-08-14T07:12:40.965Z,8.27
2023-08-14T07:15:43.142Z,6.87
2023-08-14T07:18:45.121Z,3.83
2023-08-14T07:21:47.488Z,4.40
2023-08-14T07:24:49.516Z,5.05
2023-08-14T07:27:51.960Z,4.68
2023-08-14T07:30:54.129Z,5.87
2023-08-14T07:33:56.725Z,4.17
2023-08-14T07:36:58.738Z,5.40
2023-08-14T07:40:01.177Z,4.40
2023-08-14T07:43:03.237Z,4.35
2023-08-14T07:46:05.602Z,4.50
2023-08-14T07:49:07.806Z,6.40
2023-08-14T07:52:11.516Z,5.25
2023-08-14T07:55:14.121Z,4.88
2023-08-14T07:58:17.465Z,5.07
2023-08-14T08:01:19.480Z,5.33
2023-08-14T08:07:27.387Z,4.97
2023-08-14T08:10:31.393Z,5.07
2023-08-14T08:13:33.366Z,6.22
2023-08-14T08:16:38.625Z,4.73
2023-08-14T10:32:11.590Z,4.55
2023-08-14T10:35:27.023Z,6.18
2023-08-14T10:39:03.327Z,4.28
2023-08-14T10:42:19.081Z,4.43
2023-08-14T10:45:41.614Z,5.33
2023-08-14T10:48:56.829Z,4.25
2023-08-14T10:52:18.861Z,4.20
2023-08-14T10:55:38.423Z,4.13
2023-08-14T10:59:01.593Z,4.20
2023-08-14T11:02:17.260Z,6.00
2023-08-14T11:05:38.695Z,5.07
2023-08-14T11:08:58.099Z,4.20
2023-08-14T11:12:20.832Z,4.32
2023-08-14T11:15:36.343Z,4.43
2023-08-14T11:18:59.337Z,4.23
2023-08-14T11:22:14.899Z,5.25
2023-08-14T11:25:36.579Z,4.15
2023-08-14T11:31:49.955Z,4.13
2023-08-14T11:34:52.874Z,4.30
2023-08-14T11:37:55.347Z,5.05
2023-08-14T11:40:57.573Z,4.20
2023-08-14T11:44:00.989Z,5.40
2023-08-14T11:47:07.923Z,3.33
2023-08-14T11:50:10.312Z,4.70
2023-08-14T11:53:12.939Z,3.63
2023-08-14T11:56:15.382Z,3.80
2023-08-14T11:59:17.698Z,4.40
2023-08-14T12:02:21.220Z,3.85
2023-08-14T12:05:23.715Z,5.37
2023-08-14T12:08:27.688Z,3.30
2023-08-14T12:11:30.389Z,3.88
2023-08-14T12:14:39.635Z,4.20
2023-08-14T12:17:43.846Z,4.45
2023-08-14T12:20:51.081Z,3.50
2023-08-14T12:23:53.964Z,4.35
2023-08-14T12:26:56.118Z,3.80
2023-08-14T12:29:58.373Z,4.13
2023-08-14T12:33:00.609Z,3.95
2023-08-14T12:36:02.758Z,3.97
2023-08-14T12:39:05.455Z,3.60
2023-08-14T12:42:07.716Z,4.55
2023-08-14T12:45:10.319Z,3.60
2023-08-14T12:48:12.755Z,3.92
2023-08-14T12:51:14.883Z,3.73
2023-08-14T12:54:17.117Z,3.67
2023-08-14T12:57:19.191Z,3.85
2023-08-14T13:00:22.938Z,4.15
2023-08-14T13:06:29.968Z,4.67
2023-08-14T13:09:32.440Z,3.70
2023-08-14T13:12:34.683Z,4.00
2023-08-14T13:15:36.881Z,4.05
2023-08-14T13:18:38.889Z,3.43
2023-08-14T13:21:40.907Z,4.07
2023-08-14T13:24:43.249Z,4.20
2023-08-14T13:27:45.676Z,6.05
2023-08-14T13:30:51.155Z,3.47
2023-08-14T13:33:53.122Z,5.00
2023-08-14T13:36:55.660Z,3.90
2023-08-14T13:39:58.681Z,3.67
2023-08-14T13:43:00.745Z,3.92
2023-08-14T13:46:02.907Z,4.97
2023-08-14T13:49:07.709Z,3.77
2023-08-14T13:52:09.833Z,3.90
2023-08-14T13:55:11.855Z,5.30
2023-08-14T13:58:13.838Z,4.03
2023-08-14T14:01:16.312Z,4.57
2023-08-14T14:04:18.466Z,4.07
2023-08-14T14:07:24.784Z,3.90
2023-08-14T14:10:28.850Z,4.20
2023-08-14T14:13:32.129Z,4.45
2023-08-14T14:16:55.589Z,4.18
2023-08-14T14:19:57.596Z,6.87
2023-08-14T14:22:59.990Z,5.60
2023-08-14T14:26:02.005Z,4.60
2023-08-14T14:29:04.039Z,4.15
2023-08-14T14:32:06.631Z,4.78
2023-08-14T14:35:08.879Z,4.03
2023-08-14T14:38:11.216Z,5.00
2023-08-14T14:41:13.657Z,5.13
2023-08-14T14:44:15.638Z,3.60
2023-08-14T14:47:18.506Z,4.70
2023-08-14T14:50:29.403Z,5.37
2023-08-14T14:53:32.945Z,4.10
2023-08-14T14:56:35.063Z,4.38
2023-08-14T14:59:37.871Z,4.38
2023-08-14T15:02:40.279Z,5.10
2023-08-14T15:05:42.351Z,5.93
2023-08-14T15:08:44.673Z,4.10
2023-08-14T15:11:47.078Z,3.90
2023-08-14T15:14:49.059Z,3.55
2023-08-14T15:17:51.380Z,4.07
2023-08-14T15:20:53.906Z,3.92
2023-08-14T15:23:56.268Z,4.30
2023-08-14T15:26:58.238Z,3.75
2023-08-14T15:30:00.462Z,4.20
2023-08-14T15:33:02.463Z,4.80
2023-08-14T15:36:04.677Z,5.97
2023-08-14T15:39:07.301Z,5.20
2023-08-14T15:42:09.733Z,4.45
2023-08-14T15:45:14.263Z,6.50
2023-08-14T15:48:16.681Z,4.18
2023-08-14T15:51:19.554Z,4.20
2023-08-14T15:54:21.638Z,5.73
2023-08-14T15:57:23.713Z,4.55
2023-08-14T16:00:29.765Z,5.80
2023-08-14T16:03:31.905Z,4.00
2023-08-14T16:06:34.308Z,4.20
2023-08-14T16:09:36.719Z,4.03
2023-08-14T16:12:38.679Z,4.25
2023-08-14T16:15:40.665Z,5.65
2023-08-14T16:18:42.735Z,4.15
2023-08-14T16:21:45.241Z,3.67
2023-08-14T16:24:47.208Z,3.63
2023-08-14T16:27:49.212Z,5.90
2023-08-14T16:30:51.755Z,4.32
2023-08-14T16:33:53.792Z,4.18
2023-08-14T16:36:55.837Z,5.47
2023-08-14T16:39:58.307Z,3.97
2023-08-14T16:43:01.288Z,4.13
2023-08-14T16:46:03.720Z,5.78
2023-08-14T16:49:06.214Z,4.50
2023-08-14T16:52:08.571Z,4.93
2023-08-14T16:55:11.173Z,7.03
2023-08-14T16:58:13.178Z,4.28
2023-08-14T17:01:15.802Z,4.18
2023-08-14T17:04:18.834Z,5.55
2023-08-14T17:07:21.147Z,5.37
2023-08-14T17:10:23.854Z,7.20
2023-08-14T17:13:26.539Z,5.72
2023-08-14T17:16:29.589Z,10.55
2023-08-14T17:19:32.097Z,5.72
2023-08-14T17:22:34.852Z,4.47
2023-08-14T17:25:36.930Z,7.27
2023-08-14T17:28:39.397Z,5.72
2023-08-14T17:31:41.607Z,5.68
2023-08-14T17:34:43.802Z,4.97
2023-08-14T17:37:45.778Z,5.17
2023-08-14T17:40:54.208Z,5.23
2023-08-14T17:43:56.316Z,6.38
2023-08-14T17:47:01.109Z,5.65
2023-08-14T17:50:03.750Z,9.68
2023-08-14T17:53:05.777Z,7.87
2023-08-14T17:56:07.776Z,6.23
2023-08-14T17:59:10.375Z,5.32
2023-08-14T18:02:12.575Z,6.78
2023-08-14T18:05:15.031Z,4.95
2023-08-14T18:08:17.509Z,7.50
2023-08-14T18:11:21.110Z,7.63
2023-08-14T18:14:23.347Z,7.72
2023-08-14T18:17:25.401Z,5.22
2023-08-14T18:20:27.507Z,5.43
2023-08-14T18:23:31.638Z,6.70
2023-08-14T18:26:34.063Z,6.13
2023-08-14T18:29:36.213Z,6.57
2023-08-14T18:32:38.397Z,5.88
2023-08-14T18:35:40.406Z,4.95
2023-08-14T18:38:42.773Z,8.43
2023-08-14T18:41:44.827Z,9.53
2023-08-14T18:44:46.858Z,6.88
2023-08-14T18:47:49.283Z,10.20
2023-08-14T18:50:51.768Z,8.13
2023-08-14T18:53:54.216Z,7.57
2023-08-14T18:56:56.605Z,8.53
2023-08-14T18:59:59.041Z,11.65
2023-08-14T19:03:01.578Z,9.73
2023-08-14T19:06:04.047Z,9.13
2023-08-14T19:09:06.157Z,7.90
2023-08-14T19:12:08.508Z,7.43
2023-08-14T19:15:10.584Z,7.55
2023-08-14T19:18:12.603Z,7.82
2023-08-14T19:21:15.767Z,10.57
2023-08-14T19:24:18.013Z,10.87
2023-08-14T19:27:20.309Z,10.07
2023-08-14T19:30:23.040Z,7.70
2023-08-14T19:33:25.435Z,9.25
2023-08-14T19:36:27.901Z,9.02
2023-08-14T19:39:30.785Z,9.17
2023-08-14T19:42:32.857Z,8.03
2023-08-14T19:45:36.523Z,14.77
2023-08-14T19:48:38.772Z,9.60
2023-08-14T19:51:41.115Z,7.88
2023-08-14T19:54:43.667Z,7.10
2023-08-14T19:57:46.540Z,8.97
2023-08-14T20:00:48.853Z,8.85
2023-08-14T20:03:51.024Z,7.82
2023-08-14T20:06:53.668Z,9.63
2023-08-14T20:09:55.719Z,7.40
2023-08-14T20:12:57.906Z,7.17
2023-08-14T20:16:00.113Z,7.50
2023-08-14T20:19:02.928Z,8.30
2023-08-14T20:22:05.233Z,7.78
2023-08-14T20:25:07.729Z,9.10
2023-08-14T20:28:10.372Z,8.53
2023-08-14T20:31:21.606Z,8.60
2023-08-14T20:34:23.741Z,6.75
2023-08-14T20:37:25.878Z,8.82
2023-08-14T20:40:29.886Z,9.53
2023-08-14T20:43:32.902Z,6.70
2023-08-14T20:46:35.379Z,6.90
2023-08-14T20:49:37.472Z,7.85
2023-08-14T20:52:39.532Z,8.43
2023-08-14T20:55:44.947Z,9.23
2023-08-14T20:58:46.992Z,9.07
2023-08-14T21:01:49.128Z,9.77
2023-08-14T21:04:51.258Z,7.20
2023-08-14T21:07:53.390Z,6.40
2023-08-14T21:10:57.890Z,7.70
2023-08-14T21:14:00.278Z,6.97
2023-08-14T21:17:02.251Z,9.68
2023-08-14T21:20:04.537Z,6.28
2023-08-14T21:23:06.968Z,9.05
2023-08-14T21:26:08.990Z,7.80
2023-08-14T21:29:11.038Z,6.43
2023-08-14T21:32:13.486Z,6.50
2023-08-14T21:35:15.909Z,7.50
2023-08-14T21:38:18.354Z,8.30
2023-08-14T21:41:20.558Z,6.67
2023-08-14T21:44:23.054Z,6.13
2023-08-14T21:47:25.033Z,11.38
2023-08-14T21:50:27.449Z,7.50
2023-08-14T21:53:29.621Z,7.95
2023-08-14T21:56:31.611Z,8.63
2023-08-14T21:59:33.982Z,6.63
2023-08-14T22:02:36.081Z,8.20
2023-08-14T22:05:38.116Z,6.65
2023-08-14T22:08:40.374Z,6.40
2023-08-14T22:11:42.524Z,6.33
2023-08-14T22:14:45.148Z,6.77
2023-08-14T22:17:47.609Z,5.97
2023-08-14T22:20:51.018Z,8.15
2023-08-14T22:23:53.188Z,9.27
2023-08-14T22:26:55.122Z,7.97
2023-08-14T22:29:57.643Z,6.57
2023-08-14T22:33:00.694Z,6.53
2023-08-14T22:36:02.755Z,9.35
2023-08-14T22:39:05.423Z,6.47
2023-08-14T22:42:07.639Z,9.10
2023-08-14T22:45:10.046Z,6.30
2023-08-14T22:48:12.199Z,6.97
2023-08-14T22:51:14.380Z,6.72
2023-08-14T22:54:16.531Z,6.78
2023-08-14T22:57:18.847Z,7.47
2023-08-14T23:00:21.874Z,6.47
2023-08-14T23:03:24.047Z,10.07
2023-08-14T23:06:26.018Z,6.88
2023-08-14T23:09:28.096Z,11.23
2023-08-14T23:12:30.033Z,6.50
2023-08-14T23:15:32.471Z,6.83
2023-08-14T23:18:34.972Z,6.75
2023-08-14T23:21:43.828Z,7.25
2023-08-14T23:24:46.226Z,8.10
2023-08-14T23:27:48.238Z,6.80
2023-08-14T23:30:50.889Z,7.47
2023-08-14T23:33:53.251Z,6.40
2023-08-14T23:36:55.281Z,9.10
2023-08-14T23:39:57.231Z,6.78
2023-08-14T23:42:59.801Z,7.20
2023-08-14T23:46:01.914Z,6.17
2023-08-14T23:49:04.606Z,6.55
2023-08-14T23:52:06.592Z,7.50
2023-08-14T23:55:09.110Z,7.95
2023-08-14T23:58:11.090Z,6.73
